Time,TemperatureF,DewpointF,PressureIn,WindDirection,WindDirectionDegrees,WindSpeedMPH,WindSpeedGustMPH,Humidity,HourlyPrecipIn,Conditions,Clouds,dailyrainin,SoftwareType,DateUTC
2016-07-23 00:03:00,73.8,71.3,30.02,South,186,0.0,0.0,92,0.00,,,0.00,vanprod-2.5,2016-07-23 04:03:00,
2016-07-23 00:08:00,73.8,71.3,30.01,South,186,0.0,2.0,92,0.00,,,0.00,vanprod-2.5,2016-07-23 04:08:00,
2016-07-23 00:13:00,73.7,71.2,30.01,South,186,1.0,2.0,92,0.00,,,0.00,vanprod-2.5,2016-07-23 04:13:00,
2016-07-23 00:18:00,73.6,71.1,30.02,South,186,1.0,1.0,92,0.00,,,0.00,vanprod-2.5,2016-07-23 04:18:00,
2016-07-23 00:23:00,73.6,71.5,30.02,South,186,1.0,1.0,93,0.00,,,0.00,vanprod-2.5,2016-07-23 04:23:00,
2016-07-23 00:28:00,73.6,71.5,30.01,South,186,1.0,2.0,93,0.00,,,0.00,vanprod-2.5,2016-07-23 04:28:00,
2016-07-23 00:33:00,73.6,71.5,30.01,South,186,2.0,3.0,93,0.00,,,0.00,vanprod-2.5,2016-07-23 04:33:00,
2016-07-23 00:38:00,73.7,71.6,30.01,South,186,1.0,2.0,93,0.00,,,0.00,vanprod-2.5,2016-07-23 04:38:00,
2016-07-23 00:43:00,73.7,71.6,30.02,South,186,1.0,3.0,93,0.00,,,0.00,vanprod-2.5,2016-07-23 04:43:00,
2016-07-23 00:48:00,73.7,71.6,30.01,South,186,0.0,2.0,93,0.00,,,0.00,vanprod-2.5,2016-07-23 04:48:00,
2016-07-23 00:53:00,73.7,71.6,30.02,South,186,0.0,1.0,93,0.00,,,0.00,vanprod-2.5,2016-07-23 04:53:00,
2016-07-23 00:58:00,73.7,71.6,30.01,South,186,0.0,0.0,93,0.00,,,0.00,vanprod-2.5,2016-07-23 04:58:00,
2016-07-23 01:03:00,73.6,71.5,30.01,South,186,0.0,0.0,93,0.00,,,0.00,vanprod-2.5,2016-07-23 05:03:00,
2016-07-23 01:08:00,73.5,71.4,30.01,South,186,0.0,0.0,93,0.00,,,0.00,vanprod-2.5,2016-07-23 05:08:00,
2016-07-23 01:13:00,73.4,71.3,30.01,South,186,0.0,0.0,93,0.00,,,0.00,vanprod-2.5,2016-07-23 05:13:00,
2016-07-23 01:18:00,73.5,71.4,30.01,South,186,0.0,0.0,93,0.00,,,0.00,vanprod-2.5,2016-07-23 05:18:00,
2016-07-23 01:23:00,73.5,71.4,30.01,South,186,0.0,1.0,93,0.00,,,0.00,vanprod-2.5,2016-07-23 05:23:00,
2016-07-23 01:28:00,73.4,71.3,30.01,South,186,0.0,0.0,93,0.00,,,0.00,vanprod-2.5,2016-07-23 05:28:00,
2016-07-23 01:33:00,73.2,71.1,30.01,South,186,0.0,0.0,93,0.00,,,0.00,vanprod-2.5,2016-07-23 05:33:00,
2016-07-23 01:38:00,73.1,71.0,30.01,South,186,0.0,0.0,93,0.00,,,0.00,vanprod-2.5,2016-07-23 05:38:00,
2016-07-23 01:43:00,73.0,70.9,30.00,South,186,0.0,0.0,93,0.00,,,0.00,vanprod-2.5,2016-07-23 05:43:00,
2016-07-23 01:48:00,72.9,71.1,30.01,South,186,0.0,0.0,94,0.00,,,0.00,vanprod-2.5,2016-07-23 05:48:00,
2016-07-23 01:53:00,72.8,71.0,30.01,South,186,0.0,0.0,94,0.00,,,0.00,vanprod-2.5,2016-07-23 05:53:00,
2016-07-23 01:58:00,72.7,70.9,30.00,South,186,0.0,0.0,94,0.00,,,0.00,vanprod-2.5,2016-07-23 05:58:00,
2016-07-23 02:03:00,72.5,70.7,30.00,South,186,0.0,0.0,94,0.00,,,0.00,vanprod-2.5,2016-07-23 06:03:00,
2016-07-23 02:08:00,72.4,70.6,30.00,South,186,0.0,0.0,94,0.00,,,0.00,vanprod-2.5,2016-07-23 06:08:00,
2016-07-23 02:13:00,72.4,70.6,30.01,South,186,0.0,0.0,94,0.00,,,0.00,vanprod-2.5,2016-07-23 06:13:00,
2016-07-23 02:18:00,72.4,70.6,30.00,South,186,0.0,0.0,94,0.00,,,0.00,vanprod-2.5,2016-07-23 06:18:00,
2016-07-23 02:23:00,72.3,70.8,30.00,South,186,0.0,0.0,95,0.00,,,0.00,vanprod-2.5,2016-07-23 06:23:00,
2016-07-23 02:28:00,72.3,70.8,30.00,South,186,0.0,0.0,95,0.00,,,0.00,vanprod-2.5,2016-07-23 06:28:00,
2016-07-23 02:33:00,72.3,70.5,30.00,South,186,0.0,0.0,94,0.00,,,0.00,vanprod-2.5,2016-07-23 06:33:00,
2016-07-23 02:38:00,72.1,70.3,30.00,South,186,0.0,0.0,94,0.00,,,0.00,vanprod-2.5,2016-07-23 06:38:00,
2016-07-23 02:43:00,71.9,70.1,30.00,South,186,0.0,0.0,94,0.00,,,0.00,vanprod-2.5,2016-07-23 06:43:00,
2016-07-23 02:48:00,71.8,70.0,30.01,South,186,0.0,0.0,94,0.00,,,0.00,vanprod-2.5,2016-07-23 06:48:00,
2016-07-23 02:53:00,71.6,70.1,30.01,South,186,0.0,0.0,95,0.00,,,0.00,vanprod-2.5,2016-07-23 06:53:00,
2016-07-23 02:58:00,71.5,70.0,30.01,South,186,0.0,0.0,95,0.00,,,0.00,vanprod-2.5,2016-07-23 06:58:00,
2016-07-23 03:03:00,71.3,69.8,30.01,South,186,0.0,0.0,95,0.00,,,0.00,vanprod-2.5,2016-07-23 07:03:00,
2016-07-23 03:08:00,71.3,69.8,30.01,South,186,0.0,0.0,95,0.00,,,0.00,vanprod-2.5,2016-07-23 07:08:00,
2016-07-23 03:13:00,71.4,70.2,30.01,South,186,0.0,0.0,96,0.00,,,0.00,vanprod-2.5,2016-07-23 07:13:00,
2016-07-23 03:18:00,71.4,70.2,30.01,South,186,0.0,0.0,96,0.00,,,0.00,vanprod-2.5,2016-07-23 07:18:00,
2016-07-23 03:23:00,71.2,70.0,30.00,South,186,0.0,0.0,96,0.00,,,0.00,vanprod-2.5,2016-07-23 07:23:00,
2016-07-23 03:28:00,71.1,69.9,30.00,South,186,0.0,0.0,96,0.00,,,0.00,vanprod-2.5,2016-07-23 07:28:00,
2016-07-23 03:33:00,70.9,69.7,30.00,South,186,0.0,0.0,96,0.00,,,0.00,vanprod-2.5,2016-07-23 07:33:00,
2016-07-23 03:38:00,70.7,69.5,30.00,South,186,0.0,0.0,96,0.00,,,0.00,vanprod-2.5,2016-07-23 07:38:00,
2016-07-23 03:43:00,70.6,69.4,30.00,South,186,0.0,0.0,96,0.00,,,0.00,vanprod-2.5,2016-07-23 07:43:00,
2016-07-23 03:48:00,70.6,69.4,30.00,South,186,0.0,0.0,96,0.00,,,0.00,vanprod-2.5,2016-07-23 07:48:00,
2016-07-23 03:53:00,70.7,69.5,30.00,South,186,0.0,0.0,96,0.00,,,0.00,vanprod-2.5,2016-07-23 07:53:00,
2016-07-23 03:58:00,70.9,70.0,30.00,South,186,0.0,0.0,97,0.00,,,0.00,vanprod-2.5,2016-07-23 07:58:00,
2016-07-23 04:03:00,71.2,70.3,30.00,South,186,0.0,0.0,97,0.00,,,0.00,vanprod-2.5,2016-07-23 08:03:00,
2016-07-23 04:08:00,71.1,70.2,30.00,South,186,0.0,0.0,97,0.00,,,0.00,vanprod-2.5,2016-07-23 08:08:00,
2016-07-23 04:13:00,71.0,69.8,30.00,South,186,0.0,0.0,96,0.00,,,0.00,vanprod-2.5,2016-07-23 08:13:00,
2016-07-23 04:18:00,71.0,70.1,30.00,South,186,0.0,0.0,97,0.00,,,0.00,vanprod-2.5,2016-07-23 08:18:00,
2016-07-23 04:23:00,70.9,70.0,30.00,South,186,0.0,0.0,97,0.00,,,0.00,vanprod-2.5,2016-07-23 08:23:00,
2016-07-23 04:28:00,70.8,69.6,30.00,South,186,0.0,0.0,96,0.00,,,0.00,vanprod-2.5,2016-07-23 08:28:00,
2016-07-23 04:33:00,70.6,69.4,30.00,South,186,0.0,0.0,96,0.00,,,0.00,vanprod-2.5,2016-07-23 08:33:00,
2016-07-23 04:38:00,70.5,69.6,30.00,South,186,0.0,0.0,97,0.00,,,0.00,vanprod-2.5,2016-07-23 08:38:00,
2016-07-23 04:43:00,70.4,69.2,30.00,South,186,0.0,0.0,96,0.00,,,0.00,vanprod-2.5,2016-07-23 08:43:00,
2016-07-23 04:48:00,70.2,69.3,30.00,South,186,0.0,0.0,97,0.00,,,0.00,vanprod-2.5,2016-07-23 08:48:00,
2016-07-23 04:53:00,70.1,68.9,30.00,South,186,0.0,0.0,96,0.00,,,0.00,vanprod-2.5,2016-07-23 08:53:00,
2016-07-23 04:58:00,70.0,69.1,30.00,South,186,0.0,0.0,97,0.00,,,0.00,vanprod-2.5,2016-07-23 08:58:00,
2016-07-23 05:03:00,70.2,69.3,30.00,South,186,0.0,0.0,97,0.00,,,0.00,vanprod-2.5,2016-07-23 09:03:00,
2016-07-23 05:08:00,70.2,69.3,30.00,South,186,0.0,0.0,97,0.00,,,0.00,vanprod-2.5,2016-07-23 09:08:00,
2016-07-23 05:13:00,70.2,69.3,30.00,South,186,0.0,0.0,97,0.00,,,0.00,vanprod-2.5,2016-07-23 09:13:00,
2016-07-23 05:18:00,70.7,69.8,30.00,South,186,0.0,0.0,97,0.00,,,0.00,vanprod-2.5,2016-07-23 09:18:00,
2016-07-23 05:23:00,71.2,70.6,30.00,South,186,0.0,0.0,98,0.00,,,0.00,vanprod-2.5,2016-07-23 09:23:00,
2016-07-23 05:28:00,71.5,70.9,30.00,South,186,0.0,0.0,98,0.00,,,0.00,vanprod-2.5,2016-07-23 09:28:00,
2016-07-23 05:33:00,71.6,71.0,30.00,South,186,0.0,0.0,98,0.00,,,0.00,vanprod-2.5,2016-07-23 09:33:00,
2016-07-23 05:38:00,71.6,70.7,30.00,South,186,0.0,0.0,97,0.00,,,0.00,vanprod-2.5,2016-07-23 09:38:00,
2016-07-23 05:43:00,71.7,70.8,30.00,South,186,0.0,0.0,97,0.00,,,0.00,vanprod-2.5,2016-07-23 09:43:00,
2016-07-23 05:48:00,71.8,71.2,30.00,South,186,0.0,0.0,98,0.00,,,0.00,vanprod-2.5,2016-07-23 09:48:00,
2016-07-23 05:53:00,71.7,70.8,30.00,South,186,0.0,0.0,97,0.00,,,0.00,vanprod-2.5,2016-07-23 09:53:00,
2016-07-23 05:58:00,71.6,70.7,30.00,South,186,0.0,0.0,97,0.00,,,0.00,vanprod-2.5,2016-07-23 09:58:00,
2016-07-23 06:03:00,71.4,70.5,30.00,South,186,0.0,0.0,97,0.00,,,0.00,vanprod-2.5,2016-07-23 10:03:00,
2016-07-23 06:08:00,71.3,70.4,30.00,South,186,0.0,0.0,97,0.00,,,0.00,vanprod-2.5,2016-07-23 10:08:00,
2016-07-23 06:13:00,71.0,70.1,30.00,South,186,0.0,0.0,97,0.00,,,0.00,vanprod-2.5,2016-07-23 10:13:00,
2016-07-23 06:18:00,71.1,70.2,30.00,South,186,0.0,0.0,97,0.00,,,0.00,vanprod-2.5,2016-07-23 10:18:00,
2016-07-23 06:23:00,71.1,70.2,30.00,South,186,0.0,0.0,97,0.00,,,0.00,vanprod-2.5,2016-07-23 10:23:00,
2016-07-23 06:28:00,71.4,70.8,30.00,South,186,0.0,0.0,98,0.00,,,0.00,vanprod-2.5,2016-07-23 10:28:00,
2016-07-23 06:33:00,71.6,71.0,30.00,South,186,0.0,0.0,98,0.00,,,0.00,vanprod-2.5,2016-07-23 10:33:00,
2016-07-23 06:38:00,71.6,70.7,30.00,South,186,0.0,0.0,97,0.00,,,0.00,vanprod-2.5,2016-07-23 10:38:00,
2016-07-23 06:43:00,71.7,71.1,30.00,South,186,0.0,0.0,98,0.00,,,0.00,vanprod-2.5,2016-07-23 10:43:00,
2016-07-23 06:48:00,71.6,70.7,30.00,South,186,0.0,0.0,97,0.00,,,0.00,vanprod-2.5,2016-07-23 10:48:00,
2016-07-23 06:53:00,71.4,70.5,30.00,South,186,0.0,0.0,97,0.00,,,0.00,vanprod-2.5,2016-07-23 10:53:00,
2016-07-23 06:58:00,71.2,70.3,30.00,South,186,0.0,0.0,97,0.00,,,0.00,vanprod-2.5,2016-07-23 10:58:00,
2016-07-23 07:03:00,71.2,70.3,30.00,South,186,0.0,0.0,97,0.00,,,0.00,vanprod-2.5,2016-07-23 11:03:00,
2016-07-23 07:08:00,71.1,70.2,30.00,South,186,0.0,0.0,97,0.00,,,0.00,vanprod-2.5,2016-07-23 11:08:00,
2016-07-23 07:13:00,71.2,70.3,30.00,South,186,0.0,0.0,97,0.00,,,0.00,vanprod-2.5,2016-07-23 11:13:00,
2016-07-23 07:18:00,71.3,70.4,30.00,South,186,0.0,0.0,97,0.00,,,0.00,vanprod-2.5,2016-07-23 11:18:00,
2016-07-23 07:23:00,71.4,70.8,30.00,South,186,0.0,0.0,98,0.00,,,0.00,vanprod-2.5,2016-07-23 11:23:00,
2016-07-23 07:28:00,71.1,70.2,30.00,South,186,0.0,0.0,97,0.00,,,0.00,vanprod-2.5,2016-07-23 11:28:00,
2016-07-23 07:33:00,71.1,70.2,30.00,SSE,148,0.0,0.0,97,0.00,,,0.00,vanprod-2.5,2016-07-23 11:33:00,
2016-07-23 07:38:00,71.1,70.2,30.00,South,186,0.0,0.0,97,0.00,,,0.00,vanprod-2.5,2016-07-23 11:38:00,
2016-07-23 07:43:00,71.1,70.2,30.00,South,186,0.0,0.0,97,0.00,,,0.00,vanprod-2.5,2016-07-23 11:43:00,
2016-07-23 07:48:00,71.1,70.2,30.00,South,186,0.0,0.0,97,0.00,,,0.00,vanprod-2.5,2016-07-23 11:48:00,
2016-07-23 07:53:00,71.2,70.3,30.00,South,186,0.0,0.0,97,0.00,,,0.00,vanprod-2.5,2016-07-23 11:53:00,
2016-07-23 07:58:00,71.5,70.9,30.00,South,186,0.0,0.0,98,0.00,,,0.00,vanprod-2.5,2016-07-23 11:58:00,
2016-07-23 08:03:00,71.8,71.2,30.00,South,186,0.0,0.0,98,0.00,,,0.00,vanprod-2.5,2016-07-23 12:03:00,
2016-07-23 08:13:00,72.4,71.8,30.00,South,186,0.0,0.0,98,0.00,,,0.00,vanprod-2.5,2016-07-23 12:13:00,
2016-07-23 08:18:00,72.7,72.1,30.00,South,186,0.0,0.0,98,0.00,,,0.00,vanprod-2.5,2016-07-23 12:18:00,
2016-07-23 08:23:00,73.1,72.5,30.00,SSE,159,0.0,0.0,98,0.00,,,0.00,vanprod-2.5,2016-07-23 12:23:00,
2016-07-23 08:28:00,73.6,73.0,30.00,South,171,0.0,0.0,98,0.00,,,0.00,vanprod-2.5,2016-07-23 12:28:00,
2016-07-23 08:33:00,73.9,73.3,30.00,SSE,166,0.0,0.0,98,0.00,,,0.00,vanprod-2.5,2016-07-23 12:33:00,
2016-07-23 08:38:00,74.2,73.3,30.00,South,186,0.0,0.0,97,0.00,,,0.00,vanprod-2.5,2016-07-23 12:38:00,
2016-07-23 08:43:00,74.5,73.6,30.01,South,186,0.0,0.0,97,0.00,,,0.00,vanprod-2.5,2016-07-23 12:43:00,
2016-07-23 08:48:00,74.8,73.9,30.01,SSE,150,0.0,0.0,97,0.00,,,0.00,vanprod-2.5,2016-07-23 12:48:00,
2016-07-23 08:53:00,75.2,74.3,30.01,South,183,0.0,0.0,97,0.00,,,0.00,vanprod-2.5,2016-07-23 12:53:00,
2016-07-23 08:58:00,75.7,74.8,30.01,SSE,153,0.0,0.0,97,0.00,,,0.00,vanprod-2.5,2016-07-23 12:58:00,
2016-07-23 09:03:00,76.1,74.9,30.01,NE,56,0.0,0.0,96,0.00,,,0.00,vanprod-2.5,2016-07-23 13:03:00,
2016-07-23 09:08:00,76.4,74.9,30.01,ENE,58,0.0,0.0,95,0.00,,,0.00,vanprod-2.5,2016-07-23 13:08:00,
2016-07-23 09:13:00,76.9,75.0,30.01,NNE,13,0.0,0.0,94,0.00,,,0.00,vanprod-2.5,2016-07-23 13:13:00,
2016-07-23 09:18:00,77.1,74.6,30.02,North,7,0.0,0.0,92,0.00,,,0.00,vanprod-2.5,2016-07-23 13:18:00,
2016-07-23 09:23:00,77.5,74.7,30.02,ENE,63,0.0,1.0,91,0.00,,,0.00,vanprod-2.5,2016-07-23 13:23:00,
2016-07-23 09:28:00,78.3,75.5,30.02,ENE,75,0.0,0.0,91,0.00,,,0.00,vanprod-2.5,2016-07-23 13:28:00,
2016-07-23 09:33:00,78.6,75.4,30.01,NNW,336,0.0,1.0,90,0.00,,,0.00,vanprod-2.5,2016-07-23 13:33:00,
2016-07-23 09:38:00,78.7,74.9,30.01,ENE,76,0.0,0.0,88,0.00,,,0.00,vanprod-2.5,2016-07-23 13:38:00,
2016-07-23 09:43:00,79.1,75.6,30.01,SSE,155,0.0,0.0,89,0.00,,,0.00,vanprod-2.5,2016-07-23 13:43:00,
2016-07-23 09:48:00,79.3,75.4,30.02,South,185,0.0,1.0,88,0.00,,,0.00,vanprod-2.5,2016-07-23 13:48:00,
2016-07-23 09:53:00,79.1,74.9,30.02,South,177,0.0,0.0,87,0.00,,,0.00,vanprod-2.5,2016-07-23 13:53:00,
2016-07-23 09:58:00,79.4,75.2,30.01,South,186,0.0,1.0,87,0.00,,,0.00,vanprod-2.5,2016-07-23 13:58:00,
2016-07-23 10:03:00,79.7,75.8,30.01,South,174,0.0,0.0,88,0.00,,,0.00,vanprod-2.5,2016-07-23 14:03:00,
2016-07-23 10:08:00,79.9,75.7,30.01,SSE,155,0.0,1.0,87,0.00,,,0.00,vanprod-2.5,2016-07-23 14:08:00,
2016-07-23 10:13:00,80.1,75.5,30.01,ESE,118,0.0,1.0,86,0.00,,,0.00,vanprod-2.5,2016-07-23 14:13:00,
2016-07-23 10:18:00,80.6,76.0,30.01,NW,308,0.0,0.0,86,0.00,,,0.00,vanprod-2.5,2016-07-23 14:18:00,
2016-07-23 10:23:00,81.2,76.6,30.04,SSW,195,0.0,1.0,86,0.00,,,0.00,vanprod-2.5,2016-07-23 14:23:00,
2016-07-23 10:28:00,81.4,75.7,30.04,SSW,198,0.0,0.0,83,0.00,,,0.00,vanprod-2.5,2016-07-23 14:28:00,
2016-07-23 10:33:00,81.6,75.9,30.04,ENE,61,0.0,0.0,83,0.00,,,0.00,vanprod-2.5,2016-07-23 14:33:00,
2016-07-23 10:38:00,81.9,75.9,30.05,SSE,149,0.0,1.0,82,0.00,,,0.00,vanprod-2.5,2016-07-23 14:38:00,
2016-07-23 10:43:00,82.2,75.8,30.04,SSE,162,1.0,2.0,81,0.00,,,0.00,vanprod-2.5,2016-07-23 14:43:00,
2016-07-23 10:48:00,82.4,76.0,30.04,SSE,151,0.0,0.0,81,0.00,,,0.00,vanprod-2.5,2016-07-23 14:48:00,
2016-07-23 10:53:00,82.7,75.9,30.04,SSE,151,0.0,0.0,80,0.00,,,0.00,vanprod-2.5,2016-07-23 14:53:00,
2016-07-23 10:58:00,82.9,75.7,30.04,WNW,301,0.0,0.0,79,0.00,,,0.00,vanprod-2.5,2016-07-23 14:58:00,
2016-07-23 11:03:00,83.4,76.2,30.04,SW,232,0.0,0.0,79,0.00,,,0.00,vanprod-2.5,2016-07-23 15:03:00,
2016-07-23 11:08:00,83.9,75.9,30.04,SW,216,2.0,3.0,77,0.00,,,0.00,vanprod-2.5,2016-07-23 15:08:00,
2016-07-23 11:13:00,84.2,76.2,30.04,SSW,198,0.0,1.0,77,0.00,,,0.00,vanprod-2.5,2016-07-23 15:13:00,
2016-07-23 11:18:00,84.5,76.1,30.04,SSW,195,1.0,3.0,76,0.00,,,0.00,vanprod-2.5,2016-07-23 15:18:00,
2016-07-23 11:23:00,84.9,75.3,30.03,West,267,0.0,0.0,73,0.00,,,0.00,vanprod-2.5,2016-07-23 15:23:00,
2016-07-23 11:28:00,85.5,76.3,30.04,SSW,195,0.0,0.0,74,0.00,,,0.00,vanprod-2.5,2016-07-23 15:28:00,
2016-07-23 11:33:00,86.4,76.3,30.03,SSW,195,0.0,0.0,72,0.00,,,0.00,vanprod-2.5,2016-07-23 15:33:00,
2016-07-23 11:38:00,87.4,76.4,30.03,SSW,195,0.0,1.0,70,0.00,,,0.00,vanprod-2.5,2016-07-23 15:38:00,
2016-07-23 11:43:00,87.4,75.5,30.03,SSW,195,1.0,2.0,68,0.00,,,0.00,vanprod-2.5,2016-07-23 15:43:00,
2016-07-23 11:48:00,87.3,77.2,30.03,SSW,203,1.0,2.0,72,0.00,,,0.00,vanprod-2.5,2016-07-23 15:48:00,
2016-07-23 11:53:00,87.2,75.8,30.03,SW,230,0.0,1.0,69,0.00,,,0.00,vanprod-2.5,2016-07-23 15:53:00,
2016-07-23 11:58:00,88.0,77.0,30.03,WSW,246,0.0,1.0,70,0.00,,,0.00,vanprod-2.5,2016-07-23 15:58:00,
2016-07-23 12:03:00,88.8,78.2,30.03,SW,228,0.0,0.0,71,0.00,,,0.00,vanprod-2.5,2016-07-23 16:03:00,
2016-07-23 12:08:00,89.5,77.5,30.03,WSW,252,0.0,2.0,68,0.00,,,0.00,vanprod-2.5,2016-07-23 16:08:00,
2016-07-23 12:13:00,89.0,77.5,30.03,West,260,0.0,0.0,69,0.00,,,0.00,vanprod-2.5,2016-07-23 16:13:00,
2016-07-23 12:18:00,89.2,76.8,30.02,NW,312,0.0,0.0,67,0.00,,,0.00,vanprod-2.5,2016-07-23 16:18:00,
2016-07-23 12:23:00,89.9,77.9,30.02,WSW,243,0.0,2.0,68,0.00,,,0.00,vanprod-2.5,2016-07-23 16:23:00,
2016-07-23 12:28:00,90.0,77.1,30.02,SSW,213,1.0,3.0,66,0.00,,,0.00,vanprod-2.5,2016-07-23 16:28:00,
2016-07-23 12:33:00,89.8,76.0,30.02,SW,230,2.0,4.0,64,0.00,,,0.00,vanprod-2.5,2016-07-23 16:33:00,
2016-07-23 12:38:00,89.7,77.7,30.02,SW,235,0.0,1.0,68,0.00,,,0.00,vanprod-2.5,2016-07-23 16:38:00,
2016-07-23 12:43:00,90.0,76.7,30.02,WSW,258,0.0,2.0,65,0.00,,,0.00,vanprod-2.5,2016-07-23 16:43:00,
2016-07-23 12:48:00,89.7,76.4,30.02,SSW,210,2.0,3.0,65,0.00,,,0.00,vanprod-2.5,2016-07-23 16:48:00,
2016-07-23 12:53:00,89.8,77.4,30.02,SW,225,1.0,3.0,67,0.00,,,0.00,vanprod-2.5,2016-07-23 16:53:00,
2016-07-23 12:58:00,90.1,73.9,30.02,SW,217,2.0,3.0,59,0.00,,,0.00,vanprod-2.5,2016-07-23 16:58:00,
2016-07-23 13:03:00,90.3,74.5,30.03,SW,229,1.0,2.0,60,0.00,,,0.00,vanprod-2.5,2016-07-23 17:03:00,
2016-07-23 13:08:00,90.3,75.0,30.03,SSW,213,1.0,2.0,61,0.00,,,0.00,vanprod-2.5,2016-07-23 17:08:00,
2016-07-23 13:13:00,90.0,74.8,30.02,WSW,252,0.0,1.0,61,0.00,,,0.00,vanprod-2.5,2016-07-23 17:13:00,
2016-07-23 13:18:00,89.8,76.5,30.02,SW,231,1.0,2.0,65,0.00,,,0.00,vanprod-2.5,2016-07-23 17:18:00,
2016-07-23 13:23:00,89.9,75.1,30.03,SW,221,2.0,5.0,62,0.00,,,0.00,vanprod-2.5,2016-07-23 17:23:00,
2016-07-23 13:28:00,89.2,75.0,30.02,SSW,196,4.0,5.0,63,0.00,,,0.00,vanprod-2.5,2016-07-23 17:28:00,
2016-07-23 13:33:00,89.1,75.3,30.02,SW,233,0.0,0.0,64,0.00,,,0.00,vanprod-2.5,2016-07-23 17:33:00,
2016-07-23 13:38:00,90.0,75.7,30.03,WSW,258,1.0,4.0,63,0.00,,,0.00,vanprod-2.5,2016-07-23 17:38:00,
2016-07-23 13:43:00,89.9,75.6,30.03,SSW,195,0.0,0.0,63,0.00,,,0.00,vanprod-2.5,2016-07-23 17:43:00,
2016-07-23 13:48:00,90.2,75.9,30.02,SSW,195,0.0,1.0,63,0.00,,,0.00,vanprod-2.5,2016-07-23 17:48:00,
2016-07-23 13:53:00,90.6,77.7,30.02,SSW,198,0.0,1.0,66,0.00,,,0.00,vanprod-2.5,2016-07-23 17:53:00,
2016-07-23 13:58:00,91.3,76.9,30.02,WNW,297,0.0,2.0,63,0.00,,,0.00,vanprod-2.5,2016-07-23 17:58:00,
2016-07-23 14:03:00,90.9,76.1,30.02,SW,228,0.0,2.0,62,0.00,,,0.00,vanprod-2.5,2016-07-23 18:03:00,
2016-07-23 14:08:00,90.7,77.3,30.02,SSW,206,0.0,1.0,65,0.00,,,0.00,vanprod-2.5,2016-07-23 18:08:00,
2016-07-23 14:13:00,90.7,76.4,30.02,WNW,286,1.0,2.0,63,0.00,,,0.00,vanprod-2.5,2016-07-23 18:13:00,
2016-07-23 14:18:00,90.1,75.3,30.02,South,169,1.0,2.0,62,0.00,,,0.00,vanprod-2.5,2016-07-23 18:18:00,
2016-07-23 14:23:00,89.7,75.4,30.02,South,186,0.0,1.0,63,0.00,,,0.00,vanprod-2.5,2016-07-23 18:23:00,
2016-07-23 14:28:00,89.8,76.5,30.02,South,177,0.0,0.0,65,0.00,,,0.00,vanprod-2.5,2016-07-23 18:28:00,
2016-07-23 14:33:00,90.5,75.7,30.02,South,186,0.0,2.0,62,0.00,,,0.00,vanprod-2.5,2016-07-23 18:33:00,
2016-07-23 14:38:00,90.6,75.3,30.02,NE,46,1.0,2.0,61,0.00,,,0.00,vanprod-2.5,2016-07-23 18:38:00,
2016-07-23 14:43:00,90.2,75.9,30.02,WSW,247,0.0,1.0,63,0.00,,,0.00,vanprod-2.5,2016-07-23 18:43:00,
2016-07-23 14:48:00,90.0,75.2,30.02,WSW,246,0.0,1.0,62,0.00,,,0.00,vanprod-2.5,2016-07-23 18:48:00,
2016-07-23 14:53:00,90.5,76.7,30.02,West,261,1.0,1.0,64,0.00,,,0.00,vanprod-2.5,2016-07-23 18:53:00,
2016-07-23 14:58:00,90.8,76.9,30.02,SW,228,2.0,2.0,64,0.00,,,0.00,vanprod-2.5,2016-07-23 18:58:00,
2016-07-23 15:03:00,91.1,75.8,30.01,SSW,206,0.0,3.0,61,0.00,,,0.00,vanprod-2.5,2016-07-23 19:03:00,
2016-07-23 15:08:00,91.7,76.8,30.01,SW,222,0.0,1.0,62,0.00,,,0.00,vanprod-2.5,2016-07-23 19:08:00,
2016-07-23 15:13:00,92.5,77.6,30.01,SW,216,0.0,0.0,62,0.00,,,0.00,vanprod-2.5,2016-07-23 19:13:00,
2016-07-23 15:18:00,93.3,77.4,30.01,West,269,0.0,1.0,60,0.00,,,0.00,vanprod-2.5,2016-07-23 19:18:00,
2016-07-23 15:23:00,92.8,75.3,30.01,West,264,0.0,2.0,57,0.00,,,0.00,vanprod-2.5,2016-07-23 19:23:00,
2016-07-23 15:28:00,92.9,74.9,30.01,WSW,240,0.0,1.0,56,0.00,,,0.00,vanprod-2.5,2016-07-23 19:28:00,
2016-07-23 15:33:00,92.6,75.2,30.01,WNW,291,0.0,0.0,57,0.00,,,0.00,vanprod-2.5,2016-07-23 19:33:00,
2016-07-23 15:38:00,92.3,76.4,30.00,WSW,240,0.0,1.0,60,0.00,,,0.00,vanprod-2.5,2016-07-23 19:38:00,
2016-07-23 15:43:00,92.7,76.8,30.00,SW,226,0.0,1.0,60,0.00,,,0.00,vanprod-2.5,2016-07-23 19:43:00,
2016-07-23 15:48:00,92.9,74.9,30.00,WSW,246,1.0,3.0,56,0.00,,,0.00,vanprod-2.5,2016-07-23 19:48:00,
2016-07-23 15:53:00,92.7,74.2,30.00,NNW,331,0.0,1.0,55,0.00,,,0.00,vanprod-2.5,2016-07-23 19:53:00,
2016-07-23 15:58:00,92.3,75.9,30.00,West,275,1.0,1.0,59,0.00,,,0.00,vanprod-2.5,2016-07-23 19:58:00,
2016-07-23 16:03:00,92.6,74.6,30.00,SW,235,0.0,1.0,56,0.00,,,0.00,vanprod-2.5,2016-07-23 20:03:00,
2016-07-23 16:08:00,93.3,75.8,30.00,SSW,195,0.0,0.0,57,0.00,,,0.00,vanprod-2.5,2016-07-23 20:08:00,
2016-07-23 16:13:00,93.8,76.8,30.00,West,276,0.0,1.0,58,0.00,,,0.00,vanprod-2.5,2016-07-23 20:13:00,
2016-07-23 16:18:00,93.5,74.4,30.00,SW,217,4.0,6.0,54,0.00,,,0.00,vanprod-2.5,2016-07-23 20:18:00,
2016-07-23 16:23:00,93.2,75.7,29.99,SSW,212,1.0,6.0,57,0.00,,,0.00,vanprod-2.5,2016-07-23 20:23:00,
2016-07-23 16:28:00,93.0,74.5,29.99,SW,219,3.0,5.0,55,0.00,,,0.00,vanprod-2.5,2016-07-23 20:28:00,
2016-07-23 16:33:00,92.9,76.0,29.99,West,276,0.0,2.0,58,0.00,,,0.00,vanprod-2.5,2016-07-23 20:33:00,
2016-07-23 16:38:00,93.1,76.1,29.99,West,260,2.0,5.0,58,0.00,,,0.00,vanprod-2.5,2016-07-23 20:38:00,
2016-07-23 16:43:00,92.9,75.4,29.99,WSW,255,0.0,1.0,57,0.00,,,0.00,vanprod-2.5,2016-07-23 20:43:00,
2016-07-23 16:48:00,92.4,76.5,29.99,West,262,0.0,0.0,60,0.00,,,0.00,vanprod-2.5,2016-07-23 20:48:00,
2016-07-23 16:53:00,92.5,76.1,29.99,West,259,0.0,0.0,59,0.00,,,0.00,vanprod-2.5,2016-07-23 20:53:00,
2016-07-23 16:58:00,93.2,75.7,29.99,WSW,241,1.0,1.0,57,0.00,,,0.00,vanprod-2.5,2016-07-23 20:58:00,
2016-07-23 17:03:00,93.6,75.6,29.99,West,261,0.0,1.0,56,0.00,,,0.00,vanprod-2.5,2016-07-23 21:03:00,
2016-07-23 17:08:00,93.6,75.6,29.99,WSW,255,0.0,1.0,56,0.00,,,0.00,vanprod-2.5,2016-07-23 21:08:00,
2016-07-23 17:13:00,93.4,75.4,29.99,West,277,0.0,1.0,56,0.00,,,0.00,vanprod-2.5,2016-07-23 21:13:00,
2016-07-23 17:18:00,93.4,76.4,29.98,WNW,287,0.0,1.0,58,0.00,,,0.00,vanprod-2.5,2016-07-23 21:18:00,
2016-07-23 17:23:00,93.3,75.3,29.98,West,259,1.0,3.0,56,0.00,,,0.00,vanprod-2.5,2016-07-23 21:23:00,
2016-07-23 17:28:00,92.9,74.9,29.98,NNW,339,0.0,0.0,56,0.00,,,0.00,vanprod-2.5,2016-07-23 21:28:00,
2016-07-23 17:33:00,92.2,75.3,29.98,WSW,258,0.0,0.0,58,0.00,,,0.00,vanprod-2.5,2016-07-23 21:33:00,
2016-07-23 17:38:00,92.3,74.9,29.98,South,186,1.0,1.0,57,0.00,,,0.00,vanprod-2.5,2016-07-23 21:38:00,
2016-07-23 17:43:00,92.4,76.0,29.97,South,186,1.0,2.0,59,0.00,,,0.00,vanprod-2.5,2016-07-23 21:43:00,
2016-07-23 17:48:00,92.3,74.9,29.97,WSW,241,0.0,1.0,57,0.00,,,0.00,vanprod-2.5,2016-07-23 21:48:00,
2016-07-23 17:53:00,92.6,76.2,29.97,West,280,0.0,1.0,59,0.00,,,0.00,vanprod-2.5,2016-07-23 21:53:00,
2016-07-23 17:58:00,92.9,76.0,29.97,WSW,245,0.0,1.0,58,0.00,,,0.00,vanprod-2.5,2016-07-23 21:58:00,
2016-07-23 18:03:00,93.0,74.5,29.96,WNW,289,1.0,2.0,55,0.00,,,0.00,vanprod-2.5,2016-07-23 22:03:00,
2016-07-23 18:08:00,93.0,75.5,29.96,South,182,0.0,1.0,57,0.00,,,0.00,vanprod-2.5,2016-07-23 22:08:00,
2016-07-23 18:13:00,93.5,75.5,29.96,South,186,0.0,0.0,56,0.00,,,0.00,vanprod-2.5,2016-07-23 22:13:00,
2016-07-23 18:18:00,93.4,74.8,29.96,South,186,0.0,0.0,55,0.00,,,0.00,vanprod-2.5,2016-07-23 22:18:00,
2016-07-23 18:23:00,93.1,75.6,29.96,South,177,0.0,0.0,57,0.00,,,0.00,vanprod-2.5,2016-07-23 22:23:00,
2016-07-23 18:28:00,92.7,74.7,29.96,South,186,0.0,0.0,56,0.00,,,0.00,vanprod-2.5,2016-07-23 22:28:00,
2016-07-23 18:33:00,92.2,74.3,29.95,South,186,0.0,0.0,56,0.00,,,0.00,vanprod-2.5,2016-07-23 22:33:00,
2016-07-23 18:38:00,92.1,75.7,29.95,South,186,0.0,0.0,59,0.00,,,0.00,vanprod-2.5,2016-07-23 22:38:00,
2016-07-23 18:43:00,92.6,75.7,29.95,South,186,0.0,0.0,58,0.00,,,0.00,vanprod-2.5,2016-07-23 22:43:00,
2016-07-23 18:48:00,93.1,76.1,29.96,South,183,0.0,0.0,58,0.00,,,0.00,vanprod-2.5,2016-07-23 22:48:00,
2016-07-23 18:53:00,92.5,74.5,29.96,NW,304,0.0,2.0,56,0.00,,,0.00,vanprod-2.5,2016-07-23 22:53:00,
2016-07-23 18:58:00,92.2,75.8,29.96,NNW,333,0.0,0.0,59,0.00,,,0.00,vanprod-2.5,2016-07-23 22:58:00,
2016-07-23 19:03:00,91.6,75.3,29.96,WSW,247,0.0,0.0,59,0.00,,,0.00,vanprod-2.5,2016-07-23 23:03:00,
2016-07-23 19:08:00,90.9,75.1,29.96,SW,227,0.0,0.0,60,0.00,,,0.00,vanprod-2.5,2016-07-23 23:08:00,
2016-07-23 19:13:00,90.4,75.1,29.95,SSW,210,0.0,0.0,61,0.00,,,0.00,vanprod-2.5,2016-07-23 23:13:00,
2016-07-23 19:18:00,90.1,74.8,29.95,NW,320,0.0,0.0,61,0.00,,,0.00,vanprod-2.5,2016-07-23 23:18:00,
2016-07-23 19:23:00,89.5,74.3,29.96,NW,320,0.0,1.0,61,0.00,,,0.00,vanprod-2.5,2016-07-23 23:23:00,
2016-07-23 19:28:00,89.1,74.9,29.95,SW,228,0.0,0.0,63,0.00,,,0.00,vanprod-2.5,2016-07-23 23:28:00,
2016-07-23 19:33:00,88.9,74.7,29.96,SW,229,0.0,0.0,63,0.00,,,0.00,vanprod-2.5,2016-07-23 23:33:00,
2016-07-23 19:38:00,88.8,74.6,29.96,SW,229,0.0,0.0,63,0.00,,,0.00,vanprod-2.5,2016-07-23 23:38:00,
2016-07-23 19:43:00,88.8,75.5,29.96,WSW,253,0.0,1.0,65,0.00,,,0.00,vanprod-2.5,2016-07-23 23:43:00,
2016-07-23 19:48:00,88.5,74.8,29.96,West,278,0.0,1.0,64,0.00,,,0.00,vanprod-2.5,2016-07-23 23:48:00,
2016-07-23 19:53:00,88.4,74.7,29.97,WSW,241,0.0,1.0,64,0.00,,,0.00,vanprod-2.5,2016-07-23 23:53:00,
2016-07-23 19:58:00,88.3,75.0,29.96,SW,234,0.0,0.0,65,0.00,,,0.00,vanprod-2.5,2016-07-23 23:58:00,
2016-07-23 20:03:00,88.1,75.8,29.96,WSW,238,0.0,0.0,67,0.00,,,0.00,vanprod-2.5,2016-07-24 00:03:00,
2016-07-23 20:08:00,87.8,74.6,29.96,WSW,238,0.0,0.0,65,0.00,,,0.00,vanprod-2.5,2016-07-24 00:08:00,
2016-07-23 20:13:00,87.7,74.9,29.96,WSW,238,0.0,0.0,66,0.00,,,0.00,vanprod-2.5,2016-07-24 00:13:00,
2016-07-23 20:18:00,87.3,75.0,29.96,WSW,238,0.0,0.0,67,0.00,,,0.00,vanprod-2.5,2016-07-24 00:18:00,
2016-07-23 20:23:00,86.7,74.9,29.96,WSW,238,0.0,0.0,68,0.00,,,0.00,vanprod-2.5,2016-07-24 00:23:00,
2016-07-23 20:28:00,86.1,74.3,29.96,WSW,238,0.0,0.0,68,0.00,,,0.00,vanprod-2.5,2016-07-24 00:28:00,
2016-07-23 20:33:00,85.6,74.3,29.96,WSW,238,0.0,0.0,69,0.00,,,0.00,vanprod-2.5,2016-07-24 00:33:00,
2016-07-23 20:38:00,85.0,74.1,29.96,WSW,238,0.0,0.0,70,0.00,,,0.00,vanprod-2.5,2016-07-24 00:38:00,
2016-07-23 20:43:00,84.5,74.5,29.97,WSW,238,0.0,0.0,72,0.00,,,0.00,vanprod-2.5,2016-07-24 00:43:00,
2016-07-23 20:48:00,84.0,74.0,29.97,WSW,238,0.0,0.0,72,0.00,,,0.00,vanprod-2.5,2016-07-24 00:48:00,
2016-07-23 20:53:00,83.6,74.0,29.97,WSW,238,0.0,0.0,73,0.00,,,0.00,vanprod-2.5,2016-07-24 00:53:00,
2016-07-23 20:58:00,83.3,73.7,29.97,WSW,238,0.0,0.0,73,0.00,,,0.00,vanprod-2.5,2016-07-24 00:58:00,
2016-07-23 21:03:00,83.1,74.0,29.97,WSW,248,0.0,0.0,74,0.00,,,0.00,vanprod-2.5,2016-07-24 01:03:00,
2016-07-23 21:08:00,82.9,73.8,29.98,WSW,248,0.0,0.0,74,0.00,,,0.00,vanprod-2.5,2016-07-24 01:08:00,
2016-07-23 21:13:00,82.5,73.8,29.98,WSW,248,0.0,0.0,75,0.00,,,0.00,vanprod-2.5,2016-07-24 01:13:00,
2016-07-23 21:18:00,82.2,73.5,29.98,WSW,248,0.0,0.0,75,0.00,,,0.00,vanprod-2.5,2016-07-24 01:18:00,
2016-07-23 21:23:00,82.2,73.9,29.98,WSW,248,0.0,0.0,76,0.00,,,0.00,vanprod-2.5,2016-07-24 01:23:00,
2016-07-23 21:28:00,82.1,74.2,29.98,WSW,248,0.0,0.0,77,0.00,,,0.00,vanprod-2.5,2016-07-24 01:28:00,
2016-07-23 21:33:00,81.8,73.9,29.99,WSW,248,0.0,0.0,77,0.00,,,0.00,vanprod-2.5,2016-07-24 01:33:00,
2016-07-23 21:38:00,81.6,73.7,29.99,WSW,248,0.0,0.0,77,0.00,,,0.00,vanprod-2.5,2016-07-24 01:38:00,
2016-07-23 21:43:00,81.4,73.9,29.99,WSW,248,0.0,0.0,78,0.00,,,0.00,vanprod-2.5,2016-07-24 01:43:00,
2016-07-23 21:53:00,81.2,74.1,30.00,WSW,248,0.0,0.0,79,0.00,,,0.00,vanprod-2.5,2016-07-24 01:53:00,
2016-07-23 21:58:00,81.0,73.9,30.00,WSW,248,0.0,0.0,79,0.00,,,0.00,vanprod-2.5,2016-07-24 01:58:00,
2016-07-23 22:03:00,80.8,74.1,30.00,WSW,248,0.0,0.0,80,0.00,,,0.00,vanprod-2.5,2016-07-24 02:03:00,
2016-07-23 22:08:00,80.7,74.0,30.00,WSW,248,0.0,0.0,80,0.00,,,0.00,vanprod-2.5,2016-07-24 02:08:00,
2016-07-23 22:13:00,80.6,73.9,30.01,WSW,248,0.0,0.0,80,0.00,,,0.00,vanprod-2.5,2016-07-24 02:13:00,
2016-07-23 22:18:00,80.5,74.1,30.01,WSW,248,0.0,0.0,81,0.00,,,0.00,vanprod-2.5,2016-07-24 02:18:00,
2016-07-23 22:23:00,80.3,73.9,30.01,WSW,248,0.0,0.0,81,0.00,,,0.00,vanprod-2.5,2016-07-24 02:23:00,
2016-07-23 22:28:00,80.2,73.8,30.01,WSW,248,0.0,0.0,81,0.00,,,0.00,vanprod-2.5,2016-07-24 02:28:00,
2016-07-23 22:33:00,80.1,73.7,30.01,WSW,248,0.0,0.0,81,0.00,,,0.00,vanprod-2.5,2016-07-24 02:33:00,
2016-07-23 22:38:00,80.2,73.8,30.01,WSW,248,0.0,0.0,81,0.00,,,0.00,vanprod-2.5,2016-07-24 02:38:00,